sensor_id;sensor_type;location;lat;lon;timestamp;pressure;altitude;pressure_sealevel;temperature;humidity
22657;BME280;11495;55.610;12.100;2022-09-09T00:04:23;99568.66;;;13.14;0.00
22657;BME280;11495;55.610;12.100;2022-09-09T00:07:21;99549.84;;;13.08;0.00
22657;BME280;11495;55.610;12.100;2022-09-09T00:15:02;99556.97;;;13.00;0.00
22657;BME280;11495;55.610;12.100;2022-09-09T00:20:03;99558.59;;;13.01;0.00
22657;BME280;11495;55.610;12.100;2022-09-09T00:22:36;99546.09;;;13.04;0.00
22657;BME280;11495;55.610;12.100;2022-09-09T00:25:11;99540.56;;;13.04;0.00
22657;BME280;11495;55.610;12.100;2022-09-09T00:27:47;99545.28;;;13.03;0.00
22657;BME280;11495;55.610;12.100;2022-09-09T00:30:24;99547.06;;;12.99;0.00
22657;BME280;11495;55.610;12.100;2022-09-09T00:32:58;99544.94;;;12.96;0.00
22657;BME280;11495;55.610;12.100;2022-09-09T00:35:27;99529.84;;;12.93;0.00
22657;BME280;11495;55.610;12.100;2022-09-09T00:37:57;99531.00;;;12.92;0.00
22657;BME280;11495;55.610;12.100;2022-09-09T00:40:32;99526.09;;;12.89;0.00
22657;BME280;11495;55.610;12.100;2022-09-09T00:43:28;99528.06;;;12.89;0.00
22657;BME280;11495;55.610;12.100;2022-09-09T00:51:55;99515.88;;;12.81;0.00
22657;BME280;11495;55.610;12.100;2022-09-09T00:54:38;99509.38;;;12.77;0.00
22657;BME280;11495;55.610;12.100;2022-09-09T00:57:14;99499.81;;;12.75;0.00
22657;BME280;11495;55.610;12.100;2022-09-09T00:59:58;99499.97;;;12.70;0.00
22657;BME280;11495;55.610;12.100;2022-09-09T01:02:31;99493.16;;;12.67;0.00
22657;BME280;11495;55.610;12.100;2022-09-09T01:05:28;99465.38;;;12.63;0.00
22657;BME280;11495;55.610;12.100;2022-09-09T01:07:57;99476.59;;;12.58;0.00
22657;BME280;11495;55.610;12.100;2022-09-09T01:10:44;99464.41;;;12.59;0.00
22657;BME280;11495;55.610;12.100;2022-09-09T01:13:29;99446.53;;;12.57;0.00
22657;BME280;11495;55.610;12.100;2022-09-09T01:15:57;99454.66;;;12.53;0.00
22657;BME280;11495;55.610;12.100;2022-09-09T01:18:27;99453.53;;;12.54;0.00
22657;BME280;11495;55.610;12.100;2022-09-09T01:24:22;99451.59;;;12.55;0.00
22657;BME280;11495;55.610;12.100;2022-09-09T01:26:54;99444.94;;;12.56;0.00
22657;BME280;11495;55.610;12.100;2022-09-09T01:29:22;99458.38;;;12.57;0.00
22657;BME280;11495;55.610;12.100;2022-09-09T01:31:57;99439.94;;;12.58;0.00
22657;BME280;11495;55.610;12.100;2022-09-09T01:34:25;99450.31;;;12.61;0.00
22657;BME280;11495;55.610;12.100;2022-09-09T01:37:08;99443.31;;;12.63;0.00
22657;BME280;11495;55.610;12.100;2022-09-09T01:39:35;99441.56;;;12.68;0.00
22657;BME280;11495;55.610;12.100;2022-09-09T01:42:04;99436.84;;;12.68;0.00
22657;BME280;11495;55.610;12.100;2022-09-09T01:44:31;99430.34;;;12.73;0.00
22657;BME280;11495;55.610;12.100;2022-09-09T01:46:57;99426.62;;;12.77;0.00
22657;BME280;11495;55.610;12.100;2022-09-09T01:49:23;99434.72;;;12.82;0.00
22657;BME280;11495;55.610;12.100;2022-09-09T01:51:53;99425.47;;;12.87;0.00
22657;BME280;11495;55.610;12.100;2022-09-09T01:54:26;99428.09;;;12.92;0.00
22657;BME280;11495;55.610;12.100;2022-09-09T02:02:32;99414.75;;;13.03;0.00
22657;BME280;11495;55.610;12.100;2022-09-09T02:05:08;99416.03;;;13.05;0.00
22657;BME280;11495;55.610;12.100;2022-09-09T02:07:41;99408.25;;;13.07;0.00
22657;BME280;11495;55.610;12.100;2022-09-09T02:10:37;99399.66;;;13.09;0.00
22657;BME280;11495;55.610;12.100;2022-09-09T02:13:20;99402.09;;;13.10;0.00
22657;BME280;11495;55.610;12.100;2022-09-09T02:18:17;99405.31;;;13.12;0.00
22657;BME280;11495;55.610;12.100;2022-09-09T02:20:49;99399.00;;;13.12;0.00
22657;BME280;11495;55.610;12.100;2022-09-09T02:23:17;99388.75;;;13.12;0.00
22657;BME280;11495;55.610;12.100;2022-09-09T02:25:46;99392.66;;;13.11;0.00
22657;BME280;11495;55.610;12.100;2022-09-09T02:28:13;99393.47;;;13.12;0.00
22657;BME280;11495;55.610;12.100;2022-09-09T02:30:42;99388.75;;;13.12;0.00
22657;BME280;11495;55.610;12.100;2022-09-09T02:33:09;99379.81;;;13.15;0.00
22657;BME280;11495;55.610;12.100;2022-09-09T02:35:37;99388.94;;;13.16;0.00
22657;BME280;11495;55.610;12.100;2022-09-09T02:38:06;99382.56;;;13.15;0.00
22657;BME280;11495;55.610;12.100;2022-09-09T02:40:34;99380.66;;;13.16;0.00
22657;BME280;11495;55.610;12.100;2022-09-09T02:42:59;99367.16;;;13.14;0.00
22657;BME280;11495;55.610;12.100;2022-09-09T02:45:30;99378.69;;;13.16;0.00
22657;BME280;11495;55.610;12.100;2022-09-09T02:48:07;99365.72;;;13.17;0.00
22657;BME280;11495;55.610;12.100;2022-09-09T02:50:40;99363.44;;;13.19;0.00
22657;BME280;11495;55.610;12.100;2022-09-09T02:53:21;99376.41;;;13.18;0.00
22657;BME280;11495;55.610;12.100;2022-09-09T02:55:58;99370.59;;;13.20;0.00
22657;BME280;11495;55.610;12.100;2022-09-09T02:58:26;99370.25;;;13.21;0.00
22657;BME280;11495;55.610;12.100;2022-09-09T03:00:52;99371.88;;;13.23;0.00
22657;BME280;11495;55.610;12.100;2022-09-09T03:03:19;99369.63;;;13.25;0.00
22657;BME280;11495;55.610;12.100;2022-09-09T03:05:45;99365.06;;;13.29;0.00
22657;BME280;11495;55.610;12.100;2022-09-09T03:08:11;99360.81;;;13.31;0.00
22657;BME280;11495;55.610;12.100;2022-09-09T03:10:38;99353.84;;;13.34;0.00
22657;BME280;11495;55.610;12.100;2022-09-09T03:13:03;99354.31;;;13.36;0.00
22657;BME280;11495;55.610;12.100;2022-09-09T03:15:34;99352.03;;;13.38;0.00
22657;BME280;11495;55.610;12.100;2022-09-09T03:18:00;99355.25;;;13.40;0.00
22657;BME280;11495;55.610;12.100;2022-09-09T03:20:28;99345.19;;;13.44;0.00
22657;BME280;11495;55.610;12.100;2022-09-09T03:22:54;99346.47;;;13.46;0.00
22657;BME280;11495;55.610;12.100;2022-09-09T03:25:20;99348.91;;;13.48;0.00
22657;BME280;11495;55.610;12.100;2022-09-09T03:27:45;99354.13;;;13.49;0.00
22657;BME280;11495;55.610;12.100;2022-09-09T03:30:11;99348.25;;;13.51;0.00
22657;BME280;11495;55.610;12.100;2022-09-09T03:32:36;99358.63;;;13.54;0.00
22657;BME280;11495;55.610;12.100;2022-09-09T03:35:02;99355.22;;;13.57;0.00
22657;BME280;11495;55.610;12.100;2022-09-09T03:37:28;99344.97;;;13.58;0.00
22657;BME280;11495;55.610;12.100;2022-09-09T03:39:53;99343.84;;;13.59;0.00
22657;BME280;11495;55.610;12.100;2022-09-09T03:42:21;99342.69;;;13.60;0.00
22657;BME280;11495;55.610;12.100;2022-09-09T03:44:48;99333.25;;;13.61;0.00
22657;BME280;11495;55.610;12.100;2022-09-09T03:47:16;99330.97;;;13.63;0.00
22657;BME280;11495;55.610;12.100;2022-09-09T03:49:42;99325.91;;;13.65;0.00
22657;BME280;11495;55.610;12.100;2022-09-09T03:52:08;99325.59;;;13.66;0.00
22657;BME280;11495;55.610;12.100;2022-09-09T03:54:34;99319.41;;;13.69;0.00
22657;BME280;11495;55.610;12.100;2022-09-09T03:57:00;99322.63;;;13.71;0.00
22657;BME280;11495;55.610;12.100;2022-09-09T03:59:25;99323.09;;;13.73;0.00
22657;BME280;11495;55.610;12.100;2022-09-09T04:01:51;99328.31;;;13.75;0.00
22657;BME280;11495;55.610;12.100;2022-09-09T04:04:21;99331.09;;;13.75;0.00
22657;BME280;11495;55.610;12.100;2022-09-09T04:06:47;99323.59;;;13.75;0.00
22657;BME280;11495;55.610;12.100;2022-09-09T04:09:14;99326.03;;;13.77;0.00
22657;BME280;11495;55.610;12.100;2022-09-09T04:11:39;99327.97;;;13.76;0.00
22657;BME280;11495;55.610;12.100;2022-09-09T04:14:07;99326.03;;;13.77;0.00
22657;BME280;11495;55.610;12.100;2022-09-09T04:16:33;99330.75;;;13.76;0.00
22657;BME280;11495;55.610;12.100;2022-09-09T04:18:59;99338.22;;;13.76;0.00
22657;BME280;11495;55.610;12.100;2022-09-09T04:21:25;99340.19;;;13.75;0.00
22657;BME280;11495;55.610;12.100;2022-09-09T04:23:51;99340.00;;;13.72;0.00
22657;BME280;11495;55.610;12.100;2022-09-09T04:26:17;99346.34;;;13.72;0.00
22657;BME280;11495;55.610;12.100;2022-09-09T04:28:43;99354.16;;;13.70;0.00
22657;BME280;11495;55.610;12.100;2022-09-09T04:31:20;99347.03;;;13.69;0.00
22657;BME280;11495;55.610;12.100;2022-09-09T04:33:48;99347.50;;;13.71;0.00
22657;BME280;11495;55.610;12.100;2022-09-09T04:36:15;99355.78;;;13.71;0.00
22657;BME280;11495;55.610;12.100;2022-09-09T04:38:41;99353.03;;;13.71;0.00
22657;BME280;11495;55.610;12.100;2022-09-09T04:41:06;99354.16;;;13.70;0.00
22657;BME280;11495;55.610;12.100;2022-09-09T04:43:32;99347.03;;;13.69;0.00
22657;BME280;11495;55.610;12.100;2022-09-09T04:45:58;99352.22;;;13.71;0.00
22657;BME280;11495;55.610;12.100;2022-09-09T04:48:26;99351.41;;;13.70;0.00
22657;BME280;11495;55.610;12.100;2022-09-09T04:51:01;99348.62;;;13.70;0.00
22657;BME280;11495;55.610;12.100;2022-09-09T04:53:27;99356.94;;;13.70;0.00
22657;BME280;11495;55.610;12.100;2022-09-09T04:58:28;99356.59;;;13.72;0.00
22657;BME280;11495;55.610;12.100;2022-09-09T05:00:54;99350.12;;;13.68;0.00
22657;BME280;11495;55.610;12.100;2022-09-09T05:03:19;99359.56;;;13.67;0.00
22657;BME280;11495;55.610;12.100;2022-09-09T05:05:44;99363.47;;;13.66;0.00
22657;BME280;11495;55.610;12.100;2022-09-09T05:08:10;99360.72;;;13.66;0.00
22657;BME280;11495;55.610;12.100;2022-09-09T05:10:38;99365.91;;;13.67;0.00
22657;BME280;11495;55.610;12.100;2022-09-09T05:13:04;99367.97;;;13.70;0.00
22657;BME280;11495;55.610;12.100;2022-09-09T05:15:30;99361.31;;;13.71;0.00
22657;BME280;11495;55.610;12.100;2022-09-09T05:18:00;99362.28;;;13.75;0.00
22657;BME280;11495;55.610;12.100;2022-09-09T05:20:26;99369.56;;;13.80;0.00
22657;BME280;11495;55.610;12.100;2022-09-09T05:22:53;99371.34;;;13.85;0.00
22657;BME280;11495;55.610;12.100;2022-09-09T05:25:19;99369.50;;;13.89;0.00
22657;BME280;11495;55.610;12.100;2022-09-09T05:27:45;99367.72;;;13.93;0.00
22657;BME280;11495;55.610;12.100;2022-09-09T05:30:11;99371.28;;;13.93;0.00
22657;BME280;11495;55.610;12.100;2022-09-09T05:32:36;99380.09;;;13.87;0.00
22657;BME280;11495;55.610;12.100;2022-09-09T05:35:02;99378.47;;;13.86;0.00
22657;BME280;11495;55.610;12.100;2022-09-09T05:37:27;99378.94;;;13.88;0.00
22657;BME280;11495;55.610;12.100;2022-09-09T05:39:55;99379.41;;;13.90;0.00
22657;BME280;11495;55.610;12.100;2022-09-09T05:42:20;99388.22;;;13.92;0.00
22657;BME280;11495;55.610;12.100;2022-09-09T05:44:46;99389.16;;;13.96;0.00
22657;BME280;11495;55.610;12.100;2022-09-09T05:47:11;99393.88;;;13.95;0.00
22657;BME280;11495;55.610;12.100;2022-09-09T05:49:36;99385.75;;;13.99;0.00
22657;BME280;11495;55.610;12.100;2022-09-09T05:52:02;99401.50;;;13.98;0.00
22657;BME280;11495;55.610;12.100;2022-09-09T05:54:29;99397.44;;;13.96;0.00
22657;BME280;11495;55.610;12.100;2022-09-09T05:56:55;99399.41;;;13.95;0.00
22657;BME280;11495;55.610;12.100;2022-09-09T05:59:20;99411.47;;;13.91;0.00
22657;BME280;11495;55.610;12.100;2022-09-09T06:01:46;99418.94;;;13.90;0.00
22657;BME280;11495;55.610;12.100;2022-09-09T06:04:12;99410.78;;;13.94;0.00
22657;BME280;11495;55.610;12.100;2022-09-09T06:06:38;99410.62;;;13.99;0.00
22657;BME280;11495;55.610;12.100;2022-09-09T06:09:07;99419.72;;;13.99;0.00
22657;BME280;11495;55.610;12.100;2022-09-09T06:11:38;99428.13;;;14.03;0.00
22657;BME280;11495;55.610;12.100;2022-09-09T06:14:10;99427.00;;;14.04;0.00
22657;BME280;11495;55.610;12.100;2022-09-09T06:16:35;99428.47;;;14.01;0.00
22657;BME280;11495;55.610;12.100;2022-09-09T06:19:02;99438.91;;;13.96;0.00
22657;BME280;11495;55.610;12.100;2022-09-09T06:21:34;99434.00;;;14.01;0.00
22657;BME280;11495;55.610;12.100;2022-09-09T06:24:05;99434.12;;;14.05;0.00
22657;BME280;11495;55.610;12.100;2022-09-09T06:26:35;99437.19;;;14.12;0.00
22657;BME280;11495;55.610;12.100;2022-09-09T06:29:02;99445.03;;;14.10;0.00
22657;BME280;11495;55.610;12.100;2022-09-09T06:31:37;99432.34;;;14.09;0.00
22657;BME280;11495;55.610;12.100;2022-09-09T06:34:08;99449.09;;;14.04;0.00
22657;BME280;11495;55.610;12.100;2022-09-09T06:36:38;99440.00;;;14.03;0.00
22657;BME280;11495;55.610;12.100;2022-09-09T06:39:06;99446.81;;;14.06;0.00
22657;BME280;11495;55.610;12.100;2022-09-09T06:41:37;99446.16;;;14.09;0.00
22657;BME280;11495;55.610;12.100;2022-09-09T06:44:03;99446.50;;;14.08;0.00
22657;BME280;11495;55.610;12.100;2022-09-09T06:46:33;99447.44;;;14.12;0.00
22657;BME280;11495;55.610;12.100;2022-09-09T06:49:00;99445.16;;;14.14;0.00
22657;BME280;11495;55.610;12.100;2022-09-09T06:51:31;99447.75;;;14.19;0.00
22657;BME280;11495;55.610;12.100;2022-09-09T06:54:13;99453.56;;;14.26;0.00
22657;BME280;11495;55.610;12.100;2022-09-09T06:56:40;99449.12;;;14.33;0.00
22657;BME280;11495;55.610;12.100;2022-09-09T06:59:10;99452.37;;;14.36;0.00
22657;BME280;11495;55.610;12.100;2022-09-09T07:01:39;99460.94;;;14.43;0.00
22657;BME280;11495;55.610;12.100;2022-09-09T07:04:17;99456.88;;;14.49;0.00
22657;BME280;11495;55.610;12.100;2022-09-09T07:06:45;99446.22;;;14.59;0.00
22657;BME280;11495;55.610;12.100;2022-09-09T07:09:15;99452.97;;;14.71;0.00
22657;BME280;11495;55.610;12.100;2022-09-09T07:11:46;99450.69;;;14.94;0.00
22657;BME280;11495;55.610;12.100;2022-09-09T07:14:15;99456.53;;;15.13;0.00
22657;BME280;11495;55.610;12.100;2022-09-09T07:16:45;99447.66;;;15.40;0.00
22657;BME280;11495;55.610;12.100;2022-09-09T07:19:13;99443.13;;;15.69;0.00
22657;BME280;11495;55.610;12.100;2022-09-09T07:21:45;99445.34;;;15.76;0.00
22657;BME280;11495;55.610;12.100;2022-09-09T07:24:10;99444.00;;;16.06;0.00
22657;BME280;11495;55.610;12.100;2022-09-09T07:26:39;99448.03;;;16.21;0.00
22657;BME280;11495;55.610;12.100;2022-09-09T07:29:05;99448.62;;;16.39;0.00
22657;BME280;11495;55.610;12.100;2022-09-09T07:31:33;99441.06;;;16.76;0.00
22657;BME280;11495;55.610;12.100;2022-09-09T07:34:01;99443.41;;;16.74;0.00
22657;BME280;11495;55.610;12.100;2022-09-09T07:36:30;99441.09;;;17.04;0.00
22657;BME280;11495;55.610;12.100;2022-09-09T07:39:08;99447.06;;;17.18;0.00
22657;BME280;11495;55.610;12.100;2022-09-09T07:41:50;99445.94;;;17.35;0.00
22657;BME280;11495;55.610;12.100;2022-09-09T07:44:21;99462.81;;;17.42;0.00
22657;BME280;11495;55.610;12.100;2022-09-09T07:46:50;99480.88;;;17.48;0.00
22657;BME280;11495;55.610;12.100;2022-09-09T07:49:19;99492.00;;;17.48;0.00
22657;BME280;11495;55.610;12.100;2022-09-09T07:51:46;99508.31;;;17.78;0.00
22657;BME280;11495;55.610;12.100;2022-09-09T07:54:15;99522.78;;;17.83;0.00
22657;BME280;11495;55.610;12.100;2022-09-09T07:57:17;99552.56;;;17.83;0.00
22657;BME280;11495;55.610;12.100;2022-09-09T07:59:43;99599.03;;;17.82;0.00
22657;BME280;11495;55.610;12.100;2022-09-09T08:02:11;99630.72;;;17.93;0.00
22657;BME280;11495;55.610;12.100;2022-09-09T08:04:37;99670.66;;;18.13;0.00
22657;BME280;11495;55.610;12.100;2022-09-09T08:07:05;99708.97;;;18.32;0.00
22657;BME280;11495;55.610;12.100;2022-09-09T08:09:31;99741.03;;;18.42;0.00
22657;BME280;11495;55.610;12.100;2022-09-09T08:11:58;99811.37;;;18.39;0.00
22657;BME280;11495;55.610;12.100;2022-09-09T08:14:24;99885.25;;;18.36;0.00
22657;BME280;11495;55.610;12.100;2022-09-09T08:16:55;99945.44;;;18.53;0.00
22657;BME280;11495;55.610;12.100;2022-09-09T08:19:21;100002.81;;;19.06;0.00
22657;BME280;11495;55.610;12.100;2022-09-09T08:21:46;100071.94;;;19.81;0.00
22657;BME280;11495;55.610;12.100;2022-09-09T08:24:14;100175.63;;;20.67;0.00
22657;BME280;11495;55.610;12.100;2022-09-09T08:26:46;100349.25;;;21.10;0.00
22657;BME280;11495;55.610;12.100;2022-09-09T08:29:13;100560.50;;;21.31;0.00
22657;BME280;11495;55.610;12.100;2022-09-09T08:31:42;100758.84;;;21.00;0.00
22657;BME280;11495;55.610;12.100;2022-09-09T08:34:08;100889.31;;;20.63;0.00
22657;BME280;11495;55.610;12.100;2022-09-09T08:36:44;100954.78;;;20.03;0.00
22657;BME280;11495;55.610;12.100;2022-09-09T08:39:16;100976.59;;;19.62;0.00
22657;BME280;11495;55.610;12.100;2022-09-09T08:50:16;100891.75;;;19.46;0.00
22657;BME280;11495;55.610;12.100;2022-09-09T08:53:12;100894.66;;;19.67;0.00
22657;BME280;11495;55.610;12.100;2022-09-09T08:55:55;100907.28;;;19.73;0.00
22657;BME280;11495;55.610;12.100;2022-09-09T08:58:27;100918.78;;;19.72;0.00
22657;BME280;11495;55.610;12.100;2022-09-09T09:11:49;100956.09;;;19.97;0.00
22657;BME280;11495;55.610;12.100;2022-09-09T09:14:21;100962.34;;;19.93;0.00
22657;BME280;11495;55.610;12.100;2022-09-09T09:16:57;100957.56;;;19.94;0.00
22657;BME280;11495;55.610;12.100;2022-09-09T09:19:24;100975.75;;;19.71;0.00
22657;BME280;11495;55.610;12.100;2022-09-09T09:24:40;100965.06;;;20.11;0.00
22657;BME280;11495;55.610;12.100;2022-09-09T09:27:16;100990.56;;;20.01;0.00
22657;BME280;11495;55.610;12.100;2022-09-09T09:29:44;101021.53;;;19.78;0.00
22657;BME280;11495;55.610;12.100;2022-09-09T09:32:17;101025.00;;;19.49;0.00
22657;BME280;11495;55.610;12.100;2022-09-09T09:34:49;100980.69;;;19.65;0.00
22657;BME280;11495;55.610;12.100;2022-09-09T09:37:26;100961.75;;;19.79;0.00
22657;BME280;11495;55.610;12.100;2022-09-09T09:39:53;100980.19;;;19.72;0.00
22657;BME280;11495;55.610;12.100;2022-09-09T09:42:19;100990.00;;;19.69;0.00
22657;BME280;11495;55.610;12.100;2022-09-09T09:44:44;101005.31;;;19.54;0.00
22657;BME280;11495;55.610;12.100;2022-09-09T09:47:18;100989.19;;;19.69;0.00
22657;BME280;11495;55.610;12.100;2022-09-09T09:49:58;100971.41;;;19.90;0.00
22657;BME280;11495;55.610;12.100;2022-09-09T09:52:33;100983.16;;;20.05;0.00
22657;BME280;11495;55.610;12.100;2022-09-09T09:55:04;100994.62;;;20.12;0.00
22657;BME280;11495;55.610;12.100;2022-09-09T09:57:33;100990.16;;;20.19;0.00
22657;BME280;11495;55.610;12.100;2022-09-09T10:00:17;101020.59;;;20.12;0.00
22657;BME280;11495;55.610;12.100;2022-09-09T10:02:45;101025.16;;;20.17;0.00
22657;BME280;11495;55.610;12.100;2022-09-09T10:07:41;101026.16;;;20.51;0.00
22657;BME280;11495;55.610;12.100;2022-09-09T10:10:13;101023.22;;;20.97;0.00
22657;BME280;11495;55.610;12.100;2022-09-09T10:18:45;101182.81;;;21.93;0.00
22657;BME280;11495;55.610;12.100;2022-09-09T10:21:34;101212.50;;;22.27;0.00
22657;BME280;11495;55.610;12.100;2022-09-09T10:29:47;101356.13;;;21.65;0.00
22657;BME280;11495;55.610;12.100;2022-09-09T10:34:42;101362.44;;;21.83;0.00
22657;BME280;11495;55.610;12.100;2022-09-09T10:37:46;101353.50;;;22.40;0.00
22657;BME280;11495;55.610;12.100;2022-09-09T10:40:31;101401.94;;;22.82;0.00
22657;BME280;11495;55.610;12.100;2022-09-09T10:48:55;101589.53;;;23.13;0.00
22657;BME280;11495;55.610;12.100;2022-09-09T10:51:40;101571.69;;;23.18;0.00
22657;BME280;11495;55.610;12.100;2022-09-09T10:55:00;101571.72;;;23.30;0.00
22657;BME280;11495;55.610;12.100;2022-09-09T10:57:14;101512.25;;;23.49;0.00
22657;BME280;11495;55.610;12.100;2022-09-09T10:59:47;101536.97;;;23.55;0.00
22657;BME280;11495;55.610;12.100;2022-09-09T11:02:26;101547.31;;;24.09;0.00
22657;BME280;11495;55.610;12.100;2022-09-09T11:07:41;101629.25;;;23.99;0.00
22657;BME280;11495;55.610;12.100;2022-09-09T11:10:25;101536.69;;;23.69;0.00
22657;BME280;11495;55.610;12.100;2022-09-09T11:12:59;101400.09;;;23.65;0.00
22657;BME280;11495;55.610;12.100;2022-09-09T11:15:42;101367.72;;;23.10;0.00
22657;BME280;11495;55.610;12.100;2022-09-09T11:18:19;101356.06;;;22.87;0.00
22657;BME280;11495;55.610;12.100;2022-09-09T11:20:47;101343.28;;;22.56;0.00
22657;BME280;11495;55.610;12.100;2022-09-09T11:23:24;101326.19;;;22.70;0.00
22657;BME280;11495;55.610;12.100;2022-09-09T11:25:55;101325.09;;;22.62;0.00
22657;BME280;11495;55.610;12.100;2022-09-09T11:36:41;101317.56;;;21.92;0.00
22657;BME280;11495;55.610;12.100;2022-09-09T11:42:30;101406.63;;;21.39;0.00
22657;BME280;11495;55.610;12.100;2022-09-09T11:44:56;101440.56;;;21.20;0.00
22657;BME280;11495;55.610;12.100;2022-09-09T11:47:23;101449.63;;;21.09;0.00
22657;BME280;11495;55.610;12.100;2022-09-09T11:50:32;101463.13;;;20.55;0.00
22657;BME280;11495;55.610;12.100;2022-09-09T11:53:24;101454.13;;;20.18;0.00
22657;BME280;11495;55.610;12.100;2022-09-09T11:56:05;101443.37;;;19.94;0.00
22657;BME280;11495;55.610;12.100;2022-09-09T11:58:42;101407.41;;;19.92;0.00
22657;BME280;11495;55.610;12.100;2022-09-09T12:01:27;101386.69;;;19.85;0.00
22657;BME280;11495;55.610;12.100;2022-09-09T12:06:51;101349.19;;;19.60;0.00
22657;BME280;11495;55.610;12.100;2022-09-09T12:09:23;101326.88;;;19.69;0.00
22657;BME280;11495;55.610;12.100;2022-09-09T12:11:50;101318.72;;;19.72;0.00
22657;BME280;11495;55.610;12.100;2022-09-09T12:14:21;101314.66;;;20.04;0.00
22657;BME280;11495;55.610;12.100;2022-09-09T12:16:47;101313.12;;;20.76;0.00
22657;BME280;11495;55.610;12.100;2022-09-09T12:19:21;101324.97;;;21.67;0.00
22657;BME280;11495;55.610;12.100;2022-09-09T12:24:58;101400.69;;;22.38;0.00
22657;BME280;11495;55.610;12.100;2022-09-09T12:27:43;101406.81;;;22.73;0.00
22657;BME280;11495;55.610;12.100;2022-09-09T12:30:15;101466.25;;;22.66;0.00
22657;BME280;11495;55.610;12.100;2022-09-09T12:32:40;101491.13;;;22.97;0.00
22657;BME280;11495;55.610;12.100;2022-09-09T12:35:12;101504.00;;;23.32;0.00
22657;BME280;11495;55.610;12.100;2022-09-09T12:37:52;101499.13;;;23.41;0.00
22657;BME280;11495;55.610;12.100;2022-09-09T12:40:25;101400.22;;;23.23;0.00
22657;BME280;11495;55.610;12.100;2022-09-09T12:42:51;101257.19;;;22.57;0.00
22657;BME280;11495;55.610;12.100;2022-09-09T12:45:18;101213.19;;;22.69;0.00
22657;BME280;11495;55.610;12.100;2022-09-09T12:47:57;101215.28;;;22.73;0.00
22657;BME280;11495;55.610;12.100;2022-09-09T12:50:28;101208.41;;;22.70;0.00
22657;BME280;11495;55.610;12.100;2022-09-09T12:52:57;101186.06;;;22.16;0.00
22657;BME280;11495;55.610;12.100;2022-09-09T12:55:51;101202.38;;;21.51;0.00
22657;BME280;11495;55.610;12.100;2022-09-09T12:58:18;101261.28;;;21.34;0.00
22657;BME280;11495;55.610;12.100;2022-09-09T13:00:50;101313.97;;;20.85;0.00
22657;BME280;11495;55.610;12.100;2022-09-09T13:03:19;101360.53;;;20.64;0.00
22657;BME280;11495;55.610;12.100;2022-09-09T13:05:46;101356.09;;;20.71;0.00
22657;BME280;11495;55.610;12.100;2022-09-09T13:08:14;101348.66;;;20.75;0.00
22657;BME280;11495;55.610;12.100;2022-09-09T13:10:47;101353.09;;;20.94;0.00
22657;BME280;11495;55.610;12.100;2022-09-09T13:13:19;101361.12;;;20.95;0.00
22657;BME280;11495;55.610;12.100;2022-09-09T13:15:54;101374.00;;;20.79;0.00
22657;BME280;11495;55.610;12.100;2022-09-09T13:18:36;101367.75;;;20.65;0.00
22657;BME280;11495;55.610;12.100;2022-09-09T13:21:03;101347.00;;;20.83;0.00
22657;BME280;11495;55.610;12.100;2022-09-09T13:23:36;101347.31;;;20.90;0.00
22657;BME280;11495;55.610;12.100;2022-09-09T13:26:05;101360.16;;;20.91;0.00
22657;BME280;11495;55.610;12.100;2022-09-09T13:28:33;101322.19;;;21.37;0.00
22657;BME280;11495;55.610;12.100;2022-09-09T13:31:21;101348.19;;;21.97;0.00
22657;BME280;11495;55.610;12.100;2022-09-09T13:33:49;101378.31;;;22.29;0.00
22657;BME280;11495;55.610;12.100;2022-09-09T13:36:14;101377.59;;;22.74;0.00
22657;BME280;11495;55.610;12.100;2022-09-09T13:41:19;101436.94;;;22.43;0.00
22657;BME280;11495;55.610;12.100;2022-09-09T13:43:47;101435.69;;;22.53;0.00
22657;BME280;11495;55.610;12.100;2022-09-09T13:48:57;101433.16;;;22.81;0.00
22657;BME280;11495;55.610;12.100;2022-09-09T13:51:39;101445.03;;;22.06;0.00
22657;BME280;11495;55.610;12.100;2022-09-09T13:54:06;101414.34;;;22.19;0.00
22657;BME280;11495;55.610;12.100;2022-09-09T13:56:37;101413.06;;;22.07;0.00
22657;BME280;11495;55.610;12.100;2022-09-09T13:59:11;101418.16;;;21.76;0.00
22657;BME280;11495;55.610;12.100;2022-09-09T14:01:39;101435.16;;;20.98;0.00
22657;BME280;11495;55.610;12.100;2022-09-09T14:04:06;101410.00;;;20.81;0.00
22657;BME280;11495;55.610;12.100;2022-09-09T14:06:34;101386.13;;;20.92;0.00
22657;BME280;11495;55.610;12.100;2022-09-09T14:09:03;101400.75;;;21.06;0.00
22657;BME280;11495;55.610;12.100;2022-09-09T14:11:29;101399.78;;;21.02;0.00
22657;BME280;11495;55.610;12.100;2022-09-09T14:13:55;101400.78;;;20.97;0.00
22657;BME280;11495;55.610;12.100;2022-09-09T14:16:24;101384.97;;;21.10;0.00
22657;BME280;11495;55.610;12.100;2022-09-09T14:18:54;101376.81;;;21.43;0.00
22657;BME280;11495;55.610;12.100;2022-09-09T14:21:22;101396.97;;;21.66;0.00
22657;BME280;11495;55.610;12.100;2022-09-09T14:23:52;101420.47;;;21.36;0.00
22657;BME280;11495;55.610;12.100;2022-09-09T14:26:23;101417.34;;;21.37;0.00
22657;BME280;11495;55.610;12.100;2022-09-09T14:28:52;101419.66;;;21.18;0.00
22657;BME280;11495;55.610;12.100;2022-09-09T14:31:18;101414.03;;;21.18;0.00
22657;BME280;11495;55.610;12.100;2022-09-09T14:33:44;101414.72;;;21.32;0.00
22657;BME280;11495;55.610;12.100;2022-09-09T14:36:10;101430.66;;;21.23;0.00
22657;BME280;11495;55.610;12.100;2022-09-09T14:38:37;101421.00;;;21.12;0.00
22657;BME280;11495;55.610;12.100;2022-09-09T14:41:08;101427.25;;;20.91;0.00
22657;BME280;11495;55.610;12.100;2022-09-09T14:43:34;101440.59;;;20.51;0.00
22657;BME280;11495;55.610;12.100;2022-09-09T14:48:37;101417.78;;;19.92;0.00
22657;BME280;11495;55.610;12.100;2022-09-09T14:53:35;101403.50;;;19.54;0.00
22657;BME280;11495;55.610;12.100;2022-09-09T14:58:31;101366.69;;;19.52;0.00
22657;BME280;11495;55.610;12.100;2022-09-09T15:01:11;101354.84;;;19.37;0.00
22657;BME280;11495;55.610;12.100;2022-09-09T15:03:39;101322.72;;;19.49;0.00